createdAt,value
2024-01-08T00:00:12.037Z,101117.84
2024-01-08T00:02:40.405Z,101116.44
2024-01-08T00:05:10.159Z,101120.66
2024-01-08T00:07:38.853Z,101110.09
2024-01-08T00:10:09.244Z,101113.78
2024-01-08T00:12:39.142Z,101108.97
2024-01-08T00:15:09.636Z,101134.91
2024-01-08T00:17:37.904Z,101125.31
2024-01-08T00:20:10.911Z,101118.84
2024-01-08T00:22:40.877Z,101110.75
2024-01-08T00:25:12.198Z,101124.34
2024-01-08T00:27:43.106Z,101120.06
2024-01-08T00:30:15.427Z,101116.38
2024-01-08T00:32:46.331Z,101109.88
2024-01-08T00:35:16.068Z,101104.22
2024-01-08T00:37:54.239Z,101127.38
2024-01-08T00:40:22.260Z,101126.69
2024-01-08T00:42:55.771Z,101127.38
2024-01-08T00:45:25.380Z,101122.13
2024-01-08T00:47:56.641Z,101116.25
2024-01-08T00:50:29.752Z,101092.50
2024-01-08T00:52:58.926Z,101111.72
2024-01-08T00:55:27.496Z,101109.16
2024-01-08T00:58:00.138Z,101117.88
2024-01-08T01:00:29.819Z,101107.91
2024-01-08T01:02:58.230Z,101107.41
2024-01-08T01:05:27.468Z,101125.03
2024-01-08T01:07:57.722Z,101122.03
2024-01-08T01:10:25.635Z,101131.06
2024-01-08T01:12:56.827Z,101117.81
2024-01-08T01:15:29.126Z,101130.31
2024-01-08T01:18:02.246Z,101132.84
2024-01-08T01:20:34.140Z,101131.06
2024-01-08T01:23:04.898Z,101129.69
2024-01-08T01:25:35.280Z,101132.19
2024-01-08T01:28:06.602Z,101127.84
2024-01-08T01:30:37.058Z,101139.03
2024-01-08T01:33:08.255Z,101134.03
2024-01-08T01:35:39.378Z,101131.31
2024-01-08T01:38:09.084Z,101135.50
2024-01-08T01:40:38.021Z,101139.63
2024-01-08T01:43:26.750Z,101138.75
2024-01-08T01:45:56.753Z,101135.44
2024-01-08T01:48:34.047Z,101137.31
2024-01-08T01:51:06.931Z,101140.81
2024-01-08T01:53:36.818Z,101141.44
2024-01-08T01:56:07.571Z,101112.69
2024-01-08T01:58:37.678Z,101136.56
2024-01-08T02:01:06.902Z,101128.47
2024-01-08T02:03:43.806Z,101131.59
2024-01-08T02:06:15.313Z,101122.41
2024-01-08T02:08:46.876Z,101134.09
2024-01-08T02:11:19.413Z,101131.72
2024-01-08T02:13:50.882Z,101122.16
2024-01-08T02:16:27.141Z,101135.91
2024-01-08T02:19:01.803Z,101133.97
2024-01-08T02:21:29.619Z,101108.63
2024-01-08T02:23:59.701Z,101126.44
2024-01-08T02:26:29.326Z,101123.72
2024-01-08T02:29:00.055Z,101120.44
2024-01-08T02:31:28.752Z,101124.34
2024-01-08T02:33:58.560Z,101120.16
2024-01-08T02:36:27.320Z,101134.19
2024-01-08T02:38:57.086Z,101124.16
2024-01-08T02:41:38.176Z,101120.13
2024-01-08T02:44:07.265Z,101125.19
2024-01-08T02:46:39.932Z,101124.50
2024-01-08T02:49:10.051Z,101142.97
2024-01-08T02:51:43.348Z,101131.69
2024-01-08T02:54:14.020Z,101142.81
2024-01-08T02:56:50.856Z,101108.16
2024-01-08T02:59:19.581Z,101128.97
2024-01-08T03:01:54.310Z,101103.63
2024-01-08T03:04:23.103Z,101124.44
2024-01-08T03:06:53.791Z,101120.78
2024-01-08T03:09:21.828Z,101130.59
2024-01-08T03:11:52.781Z,101144.41
2024-01-08T03:14:22.898Z,101146.09
2024-01-08T03:16:55.313Z,101150.28
2024-01-08T03:19:24.498Z,101130.75
2024-01-08T03:21:55.645Z,101142.81
2024-01-08T03:24:23.782Z,101131.31
2024-01-08T03:26:54.484Z,101112.25
2024-01-08T03:29:27.171Z,101089.69
2024-01-08T03:31:55.776Z,101114.00
2024-01-08T03:34:28.707Z,101137.84
2024-01-08T03:37:00.727Z,101139.44
2024-01-08T03:39:29.966Z,101153.31
2024-01-08T03:42:05.386Z,101140.91
2024-01-08T03:44:41.579Z,101133.59
2024-01-08T03:47:12.034Z,101137.22
2024-01-08T03:49:43.821Z,101144.03
2024-01-08T03:52:13.440Z,101119.34
2024-01-08T03:54:42.937Z,101146.69
2024-01-08T03:57:13.754Z,101137.03
2024-01-08T03:59:43.616Z,101136.69
2024-01-08T04:02:17.209Z,101118.97
2024-01-08T04:04:46.753Z,101150.22
2024-01-08T04:07:14.895Z,101152.56
2024-01-08T04:09:43.386Z,101147.91
2024-01-08T04:12:14.329Z,101145.91
2024-01-08T04:14:51.070Z,101152.81
2024-01-08T04:17:21.036Z,101149.47
2024-01-08T04:19:50.324Z,101150.06
2024-01-08T04:22:19.702Z,101148.78
2024-01-08T04:24:48.114Z,101153.31
2024-01-08T04:27:19.436Z,101155.25
2024-01-08T04:29:48.912Z,101151.63
2024-01-08T04:32:18.975Z,101146.97
2024-01-08T04:34:50.234Z,101129.53
2024-01-08T04:37:21.752Z,101146.25
2024-01-08T04:39:54.659Z,101149.44
2024-01-08T04:42:27.676Z,101158.53
2024-01-08T04:45:01.174Z,101139.53
2024-01-08T04:47:35.490Z,101155.63
2024-01-08T04:50:05.522Z,101152.50
2024-01-08T04:52:39.996Z,101155.03
2024-01-08T04:55:10.257Z,101128.44
2024-01-08T04:57:39.851Z,101154.19
2024-01-08T05:00:14.820Z,101161.69
2024-01-08T05:02:43.798Z,101168.66
2024-01-08T05:05:16.244Z,101166.06
2024-01-08T05:07:46.563Z,101170.94
2024-01-08T05:10:15.995Z,101164.91
2024-01-08T05:12:44.802Z,101156.72
2024-01-08T05:15:16.430Z,101164.03
2024-01-08T05:17:46.683Z,101144.66
2024-01-08T05:20:15.298Z,101161.94
2024-01-08T05:22:44.855Z,101157.31
2024-01-08T05:25:12.907Z,101169.84
2024-01-08T05:27:44.158Z,101168.59
2024-01-08T05:30:18.992Z,101166.19
2024-01-08T05:32:47.373Z,101163.19
2024-01-08T05:35:15.608Z,101181.16
2024-01-08T05:37:46.704Z,101181.28
2024-01-08T05:40:17.317Z,101175.78
2024-01-08T05:42:47.689Z,101182.56
2024-01-08T05:45:18.505Z,101162.34
2024-01-08T05:47:48.600Z,101173.47
2024-01-08T05:50:19.580Z,101174.50
2024-01-08T05:52:51.287Z,101176.16
2024-01-08T05:55:20.221Z,101181.97
2024-01-08T05:57:48.369Z,101186.94
2024-01-08T06:00:22.903Z,101189.72
2024-01-08T06:02:51.871Z,101191.81
2024-01-08T06:05:22.139Z,101144.19
2024-01-08T06:07:52.532Z,101190.50
2024-01-08T06:10:24.292Z,101194.84
2024-01-08T06:12:52.142Z,101184.50
2024-01-08T06:15:23.157Z,101171.81
2024-01-08T06:17:53.909Z,101191.25
2024-01-08T06:20:22.941Z,101192.13
2024-01-08T06:22:55.310Z,101196.91
2024-01-08T06:25:27.828Z,101199.34
2024-01-08T06:27:57.845Z,101192.28
2024-01-08T06:30:32.259Z,101196.38
2024-01-08T06:33:01.635Z,101200.59
2024-01-08T06:35:30.992Z,101196.53
2024-01-08T06:38:00.686Z,101210.03
2024-01-08T06:40:28.708Z,101225.84
2024-01-08T06:43:01.483Z,101216.25
2024-01-08T06:45:32.839Z,101213.31
2024-01-08T06:48:02.704Z,101222.72
2024-01-08T06:50:31.077Z,101220.19
2024-01-08T06:52:58.948Z,101226.09
2024-01-08T06:55:28.525Z,101226.25
2024-01-08T06:57:59.402Z,101223.28
2024-01-08T07:00:29.838Z,101217.38
2024-01-08T07:03:01.045Z,101227.94
2024-01-08T07:05:32.552Z,101231.75
2024-01-08T07:08:01.378Z,101237.53
2024-01-08T07:10:32.719Z,101226.94
2024-01-08T07:13:00.801Z,101228.38
2024-01-08T07:15:40.491Z,101209.47
2024-01-08T07:18:14.375Z,101237.38
2024-01-08T07:20:43.763Z,101231.84
2024-01-08T07:23:17.741Z,101251.00
2024-01-08T07:25:55.235Z,101250.47
2024-01-08T07:28:26.094Z,101255.22
2024-01-08T07:30:55.517Z,101254.50
2024-01-08T07:33:26.028Z,101261.88
2024-01-08T07:35:56.926Z,101258.25
2024-01-08T07:38:26.572Z,101258.66
2024-01-08T07:40:59.151Z,101272.28
2024-01-08T07:43:29.985Z,101271.13
2024-01-08T07:46:00.130Z,101254.38
2024-01-08T07:48:29.685Z,101277.84
2024-01-08T07:50:59.788Z,101261.94
2024-01-08T07:56:14.992Z,101282.56
2024-01-08T07:58:45.410Z,101287.56
2024-01-08T08:01:15.959Z,101287.56
2024-01-08T08:03:48.417Z,101295.69
2024-01-08T08:06:17.557Z,101286.78
2024-01-08T08:08:51.714Z,101289.69
2024-01-08T08:11:23.660Z,101295.25
2024-01-08T08:13:54.369Z,101302.75
2024-01-08T08:16:25.150Z,101300.28
2024-01-08T08:18:56.148Z,101292.47
2024-01-08T08:21:29.277Z,101270.09
2024-01-08T08:24:01.467Z,101298.94
2024-01-08T08:26:34.236Z,101292.38
2024-01-08T08:29:05.210Z,101310.69
2024-01-08T08:31:38.402Z,101307.03
2024-01-08T08:34:10.768Z,101304.31
2024-01-08T08:36:45.271Z,101303.59
2024-01-08T08:39:18.682Z,101298.31
2024-01-08T08:41:51.189Z,101295.56
2024-01-08T08:44:20.751Z,101310.28
2024-01-08T08:46:49.640Z,101310.50
2024-01-08T08:49:21.661Z,101315.84
2024-01-08T08:51:50.173Z,101307.28
2024-01-08T08:54:20.520Z,101320.53
2024-01-08T08:56:52.118Z,101310.59
2024-01-08T08:59:26.975Z,101327.63
2024-01-08T09:01:59.671Z,101332.03
2024-01-08T09:04:29.381Z,101330.97
2024-01-08T09:07:01.457Z,101329.16
2024-01-08T09:09:32.070Z,101314.25
2024-01-08T09:12:01.011Z,101337.72
2024-01-08T09:14:31.514Z,101344.47
2024-01-08T09:16:59.834Z,101330.00
2024-01-08T09:19:32.674Z,101337.06
2024-01-08T09:22:02.276Z,101338.88
2024-01-08T09:24:39.426Z,101324.19
2024-01-08T09:27:08.852Z,101346.72
2024-01-08T09:29:45.736Z,101347.06
2024-01-08T09:32:27.421Z,101324.34
2024-01-08T09:35:03.931Z,101343.78
2024-01-08T09:37:33.535Z,101337.81
2024-01-08T09:40:11.442Z,101326.13
2024-01-08T09:42:49.125Z,101346.38
2024-01-08T09:45:24.194Z,101327.94
2024-01-08T09:47:53.549Z,101358.56
2024-01-08T09:50:24.312Z,101360.81
2024-01-08T09:52:56.037Z,101365.72
2024-01-08T09:55:25.597Z,101356.78
2024-01-08T09:58:17.147Z,101348.59
2024-01-08T10:00:46.616Z,101351.84
2024-01-08T10:03:15.504Z,101354.00
2024-01-08T10:05:48.190Z,101365.06
2024-01-08T10:08:16.350Z,101356.91
2024-01-08T10:10:45.996Z,101353.56
2024-01-08T10:13:16.521Z,101356.38
2024-01-08T10:15:55.606Z,101366.94
2024-01-08T10:18:25.883Z,101355.81
2024-01-08T10:21:10.939Z,101369.75
2024-01-08T10:23:44.418Z,101357.97
2024-01-08T10:26:17.338Z,101360.31
2024-01-08T10:29:08.063Z,101365.47
2024-01-08T10:31:36.924Z,101353.41
2024-01-08T10:34:11.147Z,101356.13
2024-01-08T10:36:44.166Z,101353.03
2024-01-08T10:39:16.877Z,101363.31
2024-01-08T10:41:45.655Z,101355.16
2024-01-08T10:44:15.440Z,101355.56
2024-01-08T10:46:54.956Z,101348.91
2024-01-08T10:49:33.473Z,101356.31
2024-01-08T10:52:11.286Z,101340.88
2024-01-08T10:54:50.142Z,101351.09
2024-01-08T10:57:24.718Z,101362.19
2024-01-08T11:02:46.209Z,101328.97
2024-01-08T11:05:18.515Z,101362.84
2024-01-08T11:07:59.221Z,101354.00
2024-01-08T11:10:32.326Z,101344.09
2024-01-08T11:13:06.492Z,101363.59
2024-01-08T11:15:37.652Z,101343.00
2024-01-08T11:18:07.499Z,101374.59
2024-01-08T11:20:44.868Z,101371.06
2024-01-08T11:23:39.602Z,101361.09
2024-01-08T11:26:22.777Z,101361.94
2024-01-08T11:29:05.595Z,101366.50
2024-01-08T11:32:19.122Z,101372.94
2024-01-08T11:35:02.993Z,101368.53
2024-01-08T11:37:38.647Z,101357.50
2024-01-08T11:40:20.176Z,101369.25
2024-01-08T11:42:55.578Z,101376.00
2024-01-08T11:45:24.308Z,101377.88
2024-01-08T11:47:55.498Z,101376.66
2024-01-08T11:50:24.812Z,101366.34
2024-01-08T11:53:01.465Z,101372.34
2024-01-08T11:55:32.928Z,101357.53
2024-01-08T11:58:04.284Z,101363.84
2024-01-08T12:00:36.507Z,101372.84
2024-01-08T12:03:06.439Z,101377.84
2024-01-08T12:05:36.468Z,101370.75
2024-01-08T12:08:05.959Z,101375.88
2024-01-08T12:10:38.860Z,101346.66
2024-01-08T12:13:07.165Z,101362.59
2024-01-08T12:15:35.487Z,101339.66
2024-01-08T12:18:04.807Z,101378.63
2024-01-08T12:20:34.971Z,101380.91
2024-01-08T12:23:05.856Z,101382.28
2024-01-08T12:25:37.971Z,101384.63
2024-01-08T12:28:17.651Z,101372.88
2024-01-08T12:30:47.245Z,101383.66
2024-01-08T12:33:25.778Z,101390.91
2024-01-08T12:35:56.946Z,101390.28
2024-01-08T12:38:26.861Z,101392.91
2024-01-08T12:40:55.890Z,101375.75
2024-01-08T12:43:25.700Z,101396.63
2024-01-08T12:45:56.779Z,101392.97
2024-01-08T12:48:25.832Z,101398.38
2024-01-08T12:50:55.568Z,101366.38
2024-01-08T12:53:24.605Z,101397.66
2024-01-08T12:55:57.913Z,101393.59
2024-01-08T12:58:38.178Z,101394.22
2024-01-08T13:01:07.639Z,101387.00
2024-01-08T13:03:41.207Z,101367.94
2024-01-08T13:06:13.875Z,101400.28
2024-01-08T13:08:44.500Z,101395.22
2024-01-08T13:11:18.769Z,101401.72
2024-01-08T13:13:54.956Z,101405.88
2024-01-08T13:16:24.904Z,101369.81
2024-01-08T13:18:55.529Z,101385.06
2024-01-08T13:21:26.556Z,101413.41
2024-01-08T13:23:59.172Z,101406.88
2024-01-08T13:26:28.849Z,101414.69
2024-01-08T13:28:59.125Z,101414.19
2024-01-08T13:31:27.226Z,101418.28
2024-01-08T13:33:59.900Z,101419.81
2024-01-08T13:36:28.030Z,101411.69
2024-01-08T13:39:00.457Z,101390.97
2024-01-08T13:41:32.515Z,101406.63
2024-01-08T13:44:06.710Z,101410.94
2024-01-08T13:46:35.734Z,101428.19
2024-01-08T13:49:06.493Z,101417.94
2024-01-08T13:51:42.727Z,101419.53
2024-01-08T13:54:18.748Z,101411.81
2024-01-08T13:56:46.809Z,101404.25
2024-01-08T13:59:17.990Z,101426.31
2024-01-08T14:01:50.945Z,101424.38
2024-01-08T14:04:21.707Z,101422.91
2024-01-08T14:06:51.920Z,101410.88
2024-01-08T14:09:20.114Z,101462.47
2024-01-08T14:11:50.822Z,101434.09
2024-01-08T14:14:22.187Z,101432.28
2024-01-08T14:16:50.430Z,101438.81
2024-01-08T14:19:18.876Z,101440.47
2024-01-08T14:21:52.491Z,101437.13
2024-01-08T14:24:21.777Z,101437.47
2024-01-08T14:26:56.136Z,101439.44
2024-01-08T14:29:27.637Z,101442.06
2024-01-08T14:31:56.110Z,101426.25
2024-01-08T14:34:32.100Z,101423.53
2024-01-08T14:37:01.543Z,101450.44
2024-01-08T14:39:30.773Z,101436.06
2024-01-08T14:41:59.215Z,101431.19
2024-01-08T14:44:30.366Z,101440.88
2024-01-08T14:47:07.530Z,101420.41
2024-01-08T14:49:38.277Z,101462.81
2024-01-08T14:52:08.447Z,101466.59
2024-01-08T14:54:48.623Z,101465.38
2024-01-08T14:57:19.956Z,101473.59
2024-01-08T15:00:12.350Z,101457.00
2024-01-08T15:02:42.282Z,101467.06
2024-01-08T15:05:12.172Z,101474.97
2024-01-08T15:07:42.002Z,101466.34
2024-01-08T15:10:10.918Z,101489.78
2024-01-08T15:12:38.877Z,101449.88
2024-01-08T15:15:10.524Z,101439.03
2024-01-08T15:17:50.717Z,101473.00
2024-01-08T15:20:32.682Z,101479.13
2024-01-08T15:23:03.777Z,101467.09
2024-01-08T15:25:38.558Z,101488.25
2024-01-08T15:28:10.482Z,101487.34
2024-01-08T15:30:40.565Z,101466.22
2024-01-08T15:33:12.105Z,101493.47
2024-01-08T15:35:41.353Z,101498.50
2024-01-08T15:38:11.209Z,101452.34
2024-01-08T15:40:46.033Z,101467.78
2024-01-08T15:43:13.895Z,101500.88
2024-01-08T15:45:49.612Z,101500.94
2024-01-08T15:48:20.626Z,101510.63
2024-01-08T15:50:49.346Z,101507.03
2024-01-08T15:53:25.787Z,101511.72
2024-01-08T15:55:56.444Z,101517.84
2024-01-08T15:58:26.596Z,101508.41
2024-01-08T16:00:58.622Z,101506.19
2024-01-08T16:03:31.322Z,101519.09
2024-01-08T16:06:00.179Z,101535.25
2024-01-08T16:08:32.416Z,101513.28
2024-01-08T16:11:09.130Z,101535.47
2024-01-08T16:13:39.162Z,101538.09
2024-01-08T16:16:14.747Z,101538.41
2024-01-08T16:18:46.283Z,101548.13
2024-01-08T16:21:16.192Z,101531.97
2024-01-08T16:23:52.626Z,101544.16
2024-01-08T16:26:28.640Z,101546.84
2024-01-08T16:29:04.947Z,101557.16
2024-01-08T16:31:39.347Z,101564.88
2024-01-08T16:34:12.048Z,101545.00
2024-01-08T16:36:40.511Z,101551.53
2024-01-08T16:39:16.224Z,101571.66
2024-01-08T16:41:46.751Z,101562.41
2024-01-08T16:44:20.309Z,101578.28
2024-01-08T16:46:50.067Z,101561.56
2024-01-08T16:49:20.266Z,101567.44
2024-01-08T16:51:50.706Z,101580.16
2024-01-08T16:54:20.042Z,101584.34
2024-01-08T16:56:52.275Z,101550.31
2024-01-08T16:59:23.251Z,101572.59
2024-01-08T17:01:53.057Z,101580.16
2024-01-08T17:04:24.031Z,101549.31
2024-01-08T17:06:51.895Z,101598.53
2024-01-08T17:09:24.244Z,101591.19
2024-01-08T17:11:54.990Z,101552.88
2024-01-08T17:14:24.755Z,101603.75
2024-01-08T17:17:08.800Z,101607.19
2024-01-08T17:19:38.476Z,101613.69
2024-01-08T17:22:14.832Z,101614.22
2024-01-08T17:24:48.948Z,101615.59
2024-01-08T17:27:19.114Z,101591.53
2024-01-08T17:29:49.572Z,101605.47
2024-01-08T17:32:23.150Z,101599.09
2024-01-08T17:34:55.810Z,101614.84
2024-01-08T17:37:29.455Z,101642.09
2024-01-08T17:40:00.067Z,101606.84
2024-01-08T17:42:34.110Z,101650.59
2024-01-08T17:45:03.420Z,101654.88
2024-01-08T17:47:37.465Z,101601.41
2024-01-08T17:50:11.188Z,101664.22
2024-01-08T17:52:40.312Z,101662.00
2024-01-08T17:55:10.013Z,101661.75
2024-01-08T17:57:41.727Z,101666.13
2024-01-08T18:00:12.877Z,101674.00
2024-01-08T18:02:45.406Z,101669.22
2024-01-08T18:05:18.570Z,101663.25
2024-01-08T18:07:53.969Z,101662.22
2024-01-08T18:10:23.960Z,101673.69
2024-01-08T18:12:52.510Z,101655.81
2024-01-08T18:15:21.731Z,101646.44
2024-01-08T18:17:53.638Z,101669.75
2024-01-08T18:20:25.189Z,101666.00
2024-01-08T18:22:54.079Z,101686.47
2024-01-08T18:25:31.658Z,101666.97
2024-01-08T18:27:59.614Z,101661.22
2024-01-08T18:30:28.637Z,101661.06
2024-01-08T18:32:56.803Z,101696.56
2024-01-08T18:35:26.908Z,101702.00
2024-01-08T18:37:56.047Z,101699.13
2024-01-08T18:40:26.651Z,101686.09
2024-01-08T18:42:55.306Z,101693.78
2024-01-08T18:45:27.405Z,101695.25
2024-01-08T18:47:56.977Z,101700.59
2024-01-08T18:50:32.082Z,101700.19
2024-01-08T18:53:00.275Z,101700.63
2024-01-08T18:55:36.288Z,101706.84
2024-01-08T18:58:05.595Z,101707.50
2024-01-08T19:00:43.221Z,101698.38
2024-01-08T19:03:12.445Z,101710.16
2024-01-08T19:05:42.634Z,101699.22
2024-01-08T19:08:10.937Z,101709.03
2024-01-08T19:10:39.245Z,101681.88
2024-01-08T19:13:12.660Z,101718.06
2024-01-08T19:15:41.985Z,101719.28
2024-01-08T19:18:11.108Z,101730.72
2024-01-08T19:20:41.829Z,101725.31
2024-01-08T19:23:13.015Z,101729.53
2024-01-08T19:25:43.297Z,101743.19
2024-01-08T19:28:13.919Z,101731.00
2024-01-08T19:33:27.687Z,101724.56
2024-01-08T19:36:09.430Z,101731.72
2024-01-08T19:38:40.287Z,101727.72
2024-01-08T19:41:18.832Z,101742.94
2024-01-08T19:43:52.461Z,101745.63
2024-01-08T19:46:21.947Z,101743.94
2024-01-08T19:48:50.620Z,101734.47
2024-01-08T19:51:22.287Z,101734.91
2024-01-08T19:53:56.716Z,101731.41
2024-01-08T19:56:26.979Z,101733.72
2024-01-08T19:58:58.266Z,101742.25
2024-01-08T20:01:33.263Z,101739.03
2024-01-08T20:04:06.678Z,101749.22
2024-01-08T20:06:34.961Z,101742.28
2024-01-08T20:09:11.116Z,101711.75
2024-01-08T20:11:40.300Z,101745.81
2024-01-08T20:14:10.779Z,101741.75
2024-01-08T20:16:44.576Z,101739.38
2024-01-08T20:19:15.126Z,101745.88
2024-01-08T20:21:43.137Z,101737.53
2024-01-08T20:24:16.254Z,101733.22
2024-01-08T20:26:49.005Z,101741.25
2024-01-08T20:29:17.052Z,101693.34
2024-01-08T20:31:45.324Z,101741.84
2024-01-08T20:34:17.442Z,101720.13
2024-01-08T20:36:45.907Z,101745.06
2024-01-08T20:39:26.507Z,101734.50
2024-01-08T20:41:59.477Z,101734.66
2024-01-08T20:44:31.352Z,101710.41
2024-01-08T20:47:00.246Z,101743.06
2024-01-08T20:49:28.626Z,101748.19
2024-01-08T20:51:58.080Z,101732.38
2024-01-08T20:54:32.078Z,101747.19
2024-01-08T20:57:02.776Z,101745.06
2024-01-08T20:59:34.206Z,101726.47
2024-01-08T21:02:03.259Z,101748.88
2024-01-08T21:04:34.011Z,101748.72
2024-01-08T21:07:06.017Z,101743.72
2024-01-08T21:09:40.407Z,101753.66
2024-01-08T21:12:09.053Z,101745.75
2024-01-08T21:14:39.080Z,101742.34
2024-01-08T21:17:09.603Z,101754.00
2024-01-08T21:19:39.308Z,101749.75
2024-01-08T21:22:08.127Z,101736.19
2024-01-08T21:24:42.858Z,101752.69
2024-01-08T21:27:11.379Z,101749.47
2024-01-08T21:29:43.686Z,101719.31
2024-01-08T21:32:15.744Z,101745.69
2024-01-08T21:34:47.402Z,101728.59
2024-01-08T21:37:19.277Z,101733.81
2024-01-08T21:39:53.421Z,101745.41
2024-01-08T21:42:26.361Z,101719.22
2024-01-08T21:44:57.443Z,101733.56
2024-01-08T21:47:27.866Z,101745.59
2024-01-08T21:49:58.457Z,101740.09
2024-01-08T21:52:28.397Z,101734.38
2024-01-08T21:54:58.197Z,101744.06
2024-01-08T22:00:10.597Z,101739.91
2024-01-08T22:02:42.135Z,101744.56
2024-01-08T22:05:14.555Z,101755.06
2024-01-08T22:08:02.278Z,101745.19
2024-01-08T22:10:33.235Z,101743.03
2024-01-08T22:13:01.024Z,101745.59
2024-01-08T22:15:30.391Z,101745.88
2024-01-08T22:18:01.709Z,101747.69
2024-01-08T22:20:31.100Z,101744.63
2024-01-08T22:23:03.204Z,101754.13
2024-01-08T22:25:34.435Z,101753.34
2024-01-08T22:28:05.313Z,101767.69
2024-01-08T22:30:37.002Z,101755.16
2024-01-08T22:33:07.024Z,101764.09
2024-01-08T22:35:37.044Z,101753.28
2024-01-08T22:38:09.793Z,101743.13
2024-01-08T22:40:39.120Z,101754.59
2024-01-08T22:43:07.265Z,101761.06
2024-01-08T22:45:35.914Z,101763.91
2024-01-08T22:48:04.965Z,101721.88
2024-01-08T22:50:40.050Z,101750.47
2024-01-08T22:53:07.993Z,101741.31
2024-01-08T22:55:39.187Z,101750.72
2024-01-08T22:58:09.174Z,101748.19
2024-01-08T23:00:39.308Z,101758.78
2024-01-08T23:03:07.922Z,101741.19
2024-01-08T23:05:36.967Z,101750.59
2024-01-08T23:08:12.877Z,101742.34
2024-01-08T23:10:43.167Z,101752.94
2024-01-08T23:13:15.535Z,101749.34
2024-01-08T23:15:46.460Z,101751.53
2024-01-08T23:18:16.926Z,101748.03
2024-01-08T23:20:47.962Z,101745.19
2024-01-08T23:23:16.843Z,101722.16
2024-01-08T23:25:47.542Z,101753.09
2024-01-08T23:28:16.234Z,101748.81
2024-01-08T23:30:45.384Z,101714.03
2024-01-08T23:33:13.643Z,101727.19
2024-01-08T23:35:49.234Z,101745.09
2024-01-08T23:38:19.892Z,101751.31
2024-01-08T23:40:51.872Z,101738.72
2024-01-08T23:43:19.823Z,101747.06
2024-01-08T23:45:49.748Z,101745.53
2024-01-08T23:48:24.960Z,101753.22
2024-01-08T23:50:53.565Z,101744.53
2024-01-08T23:53:23.041Z,101752.28
2024-01-08T23:55:52.503Z,101754.75
2024-01-08T23:58:39.287Z,101749.03
